Terminal Aerodrome Forecast
Issued by NWS Charleston, WV

Current Version | Previous Version | Text Only | Print | Product List | Glossary On
Versions: 1 2 3 4 5 6 7 8 9 10 11 12 13 14 15 16 17 18 19 20 21 22 23 24
000
FTUS41 KRLX 292323
TAFBKW
TAF
KBKW 292323Z 3000/3024 16005KT P6SM VCSH BKN045
     FM300200 15005KT P6SM BKN110
     FM301300 17004KT P6SM SCT045
     FM301700 20005KT P6SM VCTS BKN045CB=

USA.gov is the U.S. government's official web portal to all federal, state and local government web resources and services.